createdAt,value
2023-04-06T11:17:43.295Z,97086.97
2023-04-06T17:44:00.032Z,97077.25
2023-04-06T17:46:31.661Z,97068.34
2023-04-06T17:51:40.876Z,97063.91
2023-04-06T17:54:10.625Z,97071.59
2023-04-06T18:04:44.292Z,97075.88
2023-04-06T18:07:12.026Z,97074.91
2023-04-06T18:09:39.152Z,97073.44
2023-04-06T18:12:06.208Z,97076.50
2023-04-06T18:14:33.675Z,97083.38
2023-04-06T18:17:00.791Z,97076.63
2023-04-06T18:19:28.970Z,97078.56
2023-04-06T18:21:55.835Z,97088.25
2023-04-06T18:24:37.544Z,97069.66
2023-04-06T18:27:08.460Z,97073.19
2023-04-06T18:29:36.171Z,97076.25
2023-04-06T18:32:02.724Z,97072.81
2023-04-06T18:34:29.296Z,97076.94
2023-04-06T18:36:56.280Z,97075.59
2023-04-06T18:39:22.993Z,97069.41
2023-04-06T18:41:49.589Z,97068.78
2023-04-06T18:44:16.397Z,97076.25
2023-04-06T18:46:46.293Z,97067.78
2023-04-06T18:49:12.923Z,97070.38
2023-04-06T18:51:41.600Z,97074.78
2023-04-06T18:54:08.177Z,97070.97
2023-04-06T18:56:34.878Z,97072.16
2023-04-06T18:59:01.478Z,97082.53
2023-04-06T19:01:28.790Z,97073.41
2023-04-06T19:03:56.194Z,97066.53
2023-04-06T19:06:23.280Z,97075.69
2023-04-06T19:08:49.822Z,97067.69
2023-04-06T19:11:16.608Z,97066.19
2023-04-06T19:13:50.212Z,97071.09
2023-04-06T19:16:17.232Z,97077.63
2023-04-06T19:18:45.516Z,97064.69
2023-04-06T19:21:15.948Z,97064.09
2023-04-06T19:23:43.247Z,97067.63
2023-04-06T19:26:11.275Z,97074.66
2023-04-06T19:28:38.028Z,97053.59
2023-04-06T19:31:07.286Z,97067.00
2023-04-06T19:33:35.336Z,97059.47
2023-04-06T19:36:02.120Z,97068.81
2023-04-06T19:38:29.093Z,97070.41
2023-04-06T19:40:56.936Z,97065.63
2023-04-06T19:43:23.584Z,97051.59
2023-04-06T19:45:50.352Z,97059.84
2023-04-06T19:48:17.073Z,97056.41
2023-04-06T19:50:43.947Z,97049.88
2023-04-06T19:53:10.604Z,97059.13
2023-04-06T19:55:37.496Z,97052.44
2023-04-06T19:58:04.511Z,97051.00
2023-04-06T20:00:31.132Z,97037.47
2023-04-06T20:02:58.935Z,97040.69
2023-04-06T20:05:25.787Z,97042.31
2023-04-06T20:07:52.547Z,97051.75
2023-04-06T20:10:19.180Z,97020.75
2023-04-06T20:12:46.081Z,97042.25
2023-04-06T20:15:12.958Z,97038.00
2023-04-06T20:17:39.503Z,97033.22
2023-04-06T20:20:06.364Z,97038.16
2023-04-06T20:22:32.872Z,97034.78
2023-04-06T20:24:59.433Z,97031.44
2023-04-06T20:27:26.152Z,97030.84
2023-04-06T20:29:52.814Z,97027.53
2023-04-06T20:32:22.481Z,97038.28
2023-04-06T20:34:49.355Z,97033.38
2023-04-06T20:37:16.384Z,97038.59
2023-04-06T20:39:43.138Z,97041.56
2023-04-06T20:42:10.192Z,97025.69
2023-04-06T20:44:36.823Z,97043.47
2023-04-06T20:47:04.288Z,97031.53
2023-04-06T20:49:31.279Z,97030.31
2023-04-06T20:51:58.219Z,97022.13
2023-04-06T20:54:25.701Z,97028.31
2023-04-06T20:56:52.259Z,97013.59
2023-04-06T20:59:18.843Z,97000.91
2023-04-06T21:01:45.633Z,97019.81
2023-04-06T21:04:12.508Z,97013.97
2023-04-06T21:06:39.224Z,97010.03
2023-04-06T21:09:05.955Z,97006.44
2023-04-06T21:11:32.614Z,97000.25
2023-04-06T21:13:59.096Z,96999.28
2023-04-06T21:16:25.766Z,96999.13
2023-04-06T21:18:52.608Z,96994.72
2023-04-06T21:21:19.091Z,96997.63
2023-04-06T21:23:45.666Z,96991.44
2023-04-06T21:26:12.782Z,96989.63
2023-04-06T21:28:39.284Z,96995.84
2023-04-06T21:31:08.950Z,96984.72
2023-04-06T21:33:35.685Z,96984.56
2023-04-06T21:36:06.187Z,96990.47
2023-04-06T21:38:32.893Z,96984.72
2023-04-06T21:40:59.381Z,96987.34
2023-04-06T21:43:25.906Z,96980.84
2023-04-06T21:45:52.503Z,96982.31
2023-04-06T21:48:19.074Z,96981.81
2023-04-06T21:50:45.652Z,96977.09
2023-04-06T21:53:12.185Z,96981.66
2023-04-06T21:55:45.167Z,96980.69
2023-04-06T21:58:12.055Z,96977.91
2023-04-06T22:00:38.687Z,96973.31
2023-04-06T22:03:05.560Z,96971.34
2023-04-06T22:05:32.524Z,96966.13
2023-04-06T22:08:02.112Z,96963.66
2023-04-06T22:10:29.278Z,96977.41
2023-04-06T22:12:55.969Z,96954.56
2023-04-06T22:15:22.607Z,96961.13
2023-04-06T22:17:49.138Z,96961.56
2023-04-06T22:20:15.830Z,96954.56
2023-04-06T22:22:42.355Z,96959.78
2023-04-06T22:25:09.192Z,96944.41
2023-04-06T22:27:35.679Z,96948.34
2023-04-06T22:30:02.471Z,96951.94
2023-04-06T22:32:29.132Z,96948.50
2023-04-06T22:34:55.942Z,96950.31
2023-04-06T22:37:22.441Z,96941.06
2023-04-06T22:39:48.903Z,96941.06
2023-04-06T22:42:15.488Z,96943.81
2023-04-06T22:44:42.144Z,96947.25
2023-04-06T22:47:08.658Z,96944.50
2023-04-06T22:49:35.206Z,96938.28
2023-04-06T22:52:01.678Z,96933.56
2023-04-06T22:54:28.109Z,96928.66
2023-04-06T22:56:55.058Z,96927.84
2023-04-06T22:59:21.635Z,96931.13
2023-04-06T23:01:48.138Z,96925.06
2023-04-06T23:04:14.793Z,96918.06
2023-04-06T23:06:41.369Z,96925.59
2023-04-06T23:09:08.085Z,96919.69
2023-04-06T23:11:34.606Z,96922.31
2023-04-06T23:14:01.490Z,96913.50
2023-04-06T23:16:28.068Z,96911.22
2023-04-06T23:18:54.575Z,96916.47
2023-04-06T23:21:21.276Z,96919.22
2023-04-06T23:23:47.790Z,96922.81
2023-04-06T23:26:14.409Z,96912.03
2023-04-06T23:28:41.008Z,96915.78
2023-04-06T23:31:07.503Z,96913.19
2023-04-06T23:33:33.974Z,96907.47
2023-04-06T23:36:00.491Z,96912.88
2023-04-06T23:38:26.976Z,96904.06
2023-04-06T23:40:53.533Z,96902.41
2023-04-06T23:43:20.057Z,96904.22
2023-04-06T23:45:46.830Z,96903.06
2023-04-06T23:48:13.363Z,96891.66
2023-04-06T23:50:39.961Z,96895.09
2023-04-06T23:53:06.517Z,96905.53
2023-04-06T23:55:33.074Z,96895.78
2023-04-06T23:57:59.799Z,96896.59
